< < Back
Terminal Aerodrome Forecast


Current Version              Previous Versions:   1  2  3  4  5  6  7  8  9  

Terminal Aerodrome Forecast

194
FTUS42 KJAX 241100
TAFSSI
TAF
KSSI 241123Z 2412/2512 00000KT 3SM BR SCT070
     FM241300 VRB02KT P6SM SCT060
     FM241400 12008KT P6SM SCT040
     FM241800 12012KT P6SM SCT050
     FM250200 19005KT P6SM SCT060=

Latest METAR

401
SAUS70 KWBC 241400 RRA
MTRSSI
METAR KSSI 241353Z AUTO 32004KT 10SM OVC080 22/17 A3002 RMK AO2 SLP165
T02220172 PWINO $


USA.gov is the U.S. government's official web portal to all federal, state and local government web resources and services.